LFBO/TLS METAR and TAF weather

Enter ICAO airport designator
Station Type Date Time Source
LFBO METAR 2020/01/20 19:00 UTC NOAA

LFBO 201900Z AUTO 30003KT CAVOK 04/M02 Q1035


Station Type Date Time Source
LFBO Decoded METAR 2020/01/20 19:00 UTC NOAA

Toulouse / Blagnac, France (LFBO) 43-38N 001-22E 153M
Jan 20, 2020 - 02:00 PM EST / 2020.01.20 1900 UTC
Wind: from the WNW (300 degrees) at 3 MPH (3 KT):0
Visibility: greater than 7 mile(s):0
Temperature: 39 F (4 C)
Dew Point: 28 F (-2 C)
Relative Humidity: 64%
Pressure (altimeter): 30.56 in. Hg (1035 hPa)
ob: LFBO 201900Z AUTO 30003KT CAVOK 04/M02 Q103

Station Type Date Time Source
LFBO TAF 2020/01/20 18:55 UTC NOAA

TAF LFBO 201700Z 2018/2124 VRB02KT CAVOK
TEMPO 2100/2110 BKN025
BECMG 2112/2114 10008KT

Example: see airport list